Overly, North Dakota
Current Conditions -  °F | °C
As of 10:35 AM on Thursday 30 Oct 2014 (Local Time) from KRUG Reporting Station
Broken Clouds Broken Clouds  
Wind Chill: 23°   Ceiling: 1500
Heat Index: 32°   Visibility: 10mi
Dew Point: 28°   Wind: 12mph
Humidity: 87%   Direction: 20°NNE
Pressure: 30.35"   Gusts: 16mph
Location:  48.5496°N, 100.255°W
Report Text: KRUG 301535Z AUTO 02010G14KT 10SM BKN015 00/M02 A3035 RMK AO2
Loading
Personal Weather Stations






























Interactive Weather Map
Tropical Storm Tracking
New forecast layout! Learn more

10-Day Weather Forecast

Advertisements
Track Severe Weather on mobile